Time;durP1;ratioP1;P1;durP2;ratioP2;P2;SDS_P1;SDS_P2;PMS_P1;PMS_P2;Temp;Humidity;BMP_temperature;BMP_pressure;BME280_temperature;BME280_humidity;BME280_pressure;Samples;Min_cycle;Max_cycle;Signal;HPM_P1;HPM_P2
2023/07/29 00:01:59;;;;;;;;;5.00;5.00;;;;;-128.00;-1.00;-1.00;106416;1253;1002946;-37
2023/07/29 00:04:27;;;;;;;;;6.00;6.00;;;;;-128.00;-1.00;-1.00;106471;1259;1002889;-37
2023/07/29 00:06:54;;;;;;;;;6.00;6.00;;;;;-128.00;-1.00;-1.00;106465;1259;1003064;-37
2023/07/29 00:09:21;;;;;;;;;6.00;6.00;;;;;-128.00;-1.00;-1.00;106482;1251;1002731;-37
2023/07/29 00:11:48;;;;;;;;;6.00;5.00;;;;;-128.00;-1.00;-1.00;106490;1259;1002838;-37
2023/07/29 00:14:16;;;;;;;;;7.00;7.00;;;;;-128.00;-1.00;-1.00;106495;1253;1003453;-37
2023/07/29 00:16:43;;;;;;;;;6.00;6.00;;;;;-128.00;-1.00;-1.00;106466;1253;1003270;-37
2023/07/29 00:19:11;;;;;;;;;7.00;7.00;;;;;-128.00;-1.00;-1.00;106242;1253;1002800;-35
2023/07/29 00:21:38;;;;;;;;;5.00;5.00;;;;;-128.00;-1.00;-1.00;106447;1260;1004384;-36
2023/07/29 00:24:05;;;;;;;;;6.00;5.00;;;;;-128.00;-1.00;-1.00;106448;1259;1005707;-36
2023/07/29 00:26:33;;;;;;;;;7.00;7.00;;;;;-128.00;-1.00;-1.00;106460;1260;1002612;-36
2023/07/29 00:29:00;;;;;;;;;6.00;6.00;;;;;-128.00;-1.00;-1.00;106449;1259;1003214;-36
2023/07/29 00:31:27;;;;;;;;;6.00;6.00;;;;;-128.00;-1.00;-1.00;106452;1259;1003147;-37
2023/07/29 00:33:55;;;;;;;;;8.00;7.00;;;;;-128.00;-1.00;-1.00;106493;1259;1002705;-37
2023/07/29 00:36:22;;;;;;;;;7.00;7.00;;;;;-128.00;-1.00;-1.00;106447;1259;1002897;-37
2023/07/29 00:38:50;;;;;;;;;5.00;5.00;;;;;-128.00;-1.00;-1.00;106432;1259;1002670;-37
2023/07/29 00:41:18;;;;;;;;;6.00;6.00;;;;;-128.00;-1.00;-1.00;106416;1259;1006349;-37
2023/07/29 00:43:45;;;;;;;;;6.00;6.00;;;;;-128.00;-1.00;-1.00;106471;1259;1003294;-37
2023/07/29 00:46:13;;;;;;;;;6.00;6.00;;;;;-128.00;-1.00;-1.00;106429;1260;1002704;-37
2023/07/29 00:48:41;;;;;;;;;7.00;7.00;;;;;-128.00;-1.00;-1.00;106464;1253;1003036;-36
2023/07/29 00:51:08;;;;;;;;;5.00;5.00;;;;;-128.00;-1.00;-1.00;106440;1267;1002689;-37
2023/07/29 00:53:35;;;;;;;;;6.00;6.00;;;;;-128.00;-1.00;-1.00;106459;1259;1002681;-37
2023/07/29 00:56:03;;;;;;;;;6.50;6.00;;;;;-128.00;-1.00;-1.00;106383;1259;1002823;-37
2023/07/29 00:58:30;;;;;;;;;6.00;6.00;;;;;-128.00;-1.00;-1.00;106434;1259;1002819;-37
2023/07/29 01:00:57;;;;;;;;;7.00;7.00;;;;;-128.00;-1.00;-1.00;106455;1259;1002894;-37
2023/07/29 01:03:25;;;;;;;;;6.00;6.00;;;;;-128.00;-1.00;-1.00;106430;1260;1002755;-37
2023/07/29 01:05:52;;;;;;;;;6.50;6.00;;;;;-128.00;-1.00;-1.00;106437;1259;1003055;-36
2023/07/29 01:08:19;;;;;;;;;7.00;7.00;;;;;-128.00;-1.00;-1.00;106427;1259;1003674;-37
2023/07/29 01:10:47;;;;;;;;;6.00;6.00;;;;;-128.00;-1.00;-1.00;106420;1259;1003387;-36
2023/07/29 01:13:14;;;;;;;;;6.50;6.00;;;;;-128.00;-1.00;-1.00;106412;1259;1002660;-36
2023/07/29 01:15:41;;;;;;;;;6.00;6.00;;;;;-128.00;-1.00;-1.00;106316;1259;1002835;-36
2023/07/29 01:18:08;;;;;;;;;6.00;6.00;;;;;-128.00;-1.00;-1.00;106490;1259;1002319;-36
2023/07/29 01:20:36;;;;;;;;;6.00;6.00;;;;;-128.00;-1.00;-1.00;106492;1253;1002771;-36
2023/07/29 01:23:03;;;;;;;;;8.00;7.00;;;;;-128.00;-1.00;-1.00;106467;1259;1002723;-36
2023/07/29 01:25:30;;;;;;;;;6.00;6.00;;;;;-128.00;-1.00;-1.00;106438;1259;1002768;-36
2023/07/29 01:27:58;;;;;;;;;6.00;6.00;;;;;-128.00;-1.00;-1.00;106446;1259;1002909;-37
2023/07/29 01:30:26;;;;;;;;;7.00;6.00;;;;;-128.00;-1.00;-1.00;106415;1259;1002603;-36
2023/07/29 01:32:53;;;;;;;;;6.00;6.00;;;;;-128.00;-1.00;-1.00;106381;1259;1003053;-36
2023/07/29 01:35:20;;;;;;;;;6.00;6.00;;;;;-128.00;-1.00;-1.00;106429;1259;1002633;-37
2023/07/29 01:37:48;;;;;;;;;7.00;6.00;;;;;-128.00;-1.00;-1.00;106440;1259;1002974;-36
2023/07/29 01:40:15;;;;;;;;;6.00;6.00;;;;;-128.00;-1.00;-1.00;106431;1259;1002828;-38
2023/07/29 01:42:43;;;;;;;;;5.00;5.00;;;;;-128.00;-1.00;-1.00;106437;1259;1002867;-38
2023/07/29 01:45:10;;;;;;;;;7.00;7.00;;;;;-128.00;-1.00;-1.00;106446;1260;1003183;-37
2023/07/29 01:47:40;;;;;;;;;6.00;6.00;;;;;-128.00;-1.00;-1.00;106453;1259;1005101;-37
2023/07/29 01:50:07;;;;;;;;;9.00;7.00;;;;;-128.00;-1.00;-1.00;106446;1259;1006851;-37
2023/07/29 01:52:35;;;;;;;;;7.00;7.00;;;;;-128.00;-1.00;-1.00;106416;1268;1003728;-37
2023/07/29 01:55:02;;;;;;;;;7.00;7.00;;;;;-128.00;-1.00;-1.00;106376;1259;1002895;-37
2023/07/29 01:57:30;;;;;;;;;7.00;7.00;;;;;-128.00;-1.00;-1.00;106440;1259;1002384;-37
2023/07/29 01:59:57;;;;;;;;;5.67;5.67;;;;;-128.00;-1.00;-1.00;106441;1267;1002803;-37
2023/07/29 02:02:24;;;;;;;;;6.00;6.00;;;;;-128.00;-1.00;-1.00;106457;1259;1002704;-36
2023/07/29 02:04:52;;;;;;;;;6.00;6.00;;;;;-128.00;-1.00;-1.00;106425;1268;1002814;-36
2023/07/29 02:07:20;;;;;;;;;7.00;7.00;;;;;-128.00;-1.00;-1.00;106465;1253;1003277;-36
2023/07/29 02:09:47;;;;;;;;;6.00;6.00;;;;;-128.00;-1.00;-1.00;106450;1259;1002421;-37
2023/07/29 02:12:14;;;;;;;;;7.00;7.00;;;;;-128.00;-1.00;-1.00;106458;1259;1002621;-37
2023/07/29 02:14:42;;;;;;;;;7.00;6.33;;;;;-128.00;-1.00;-1.00;106436;1267;1006615;-37
2023/07/29 02:17:09;;;;;;;;;9.00;7.00;;;;;-128.00;-1.00;-1.00;106445;1259;1003157;-37
2023/07/29 02:19:36;;;;;;;;;5.00;5.00;;;;;-128.00;-1.00;-1.00;106421;1259;1002539;-37
2023/07/29 02:22:04;;;;;;;;;6.00;6.00;;;;;-128.00;-1.00;-1.00;106422;1267;1005532;-37
2023/07/29 02:24:32;;;;;;;;;6.25;6.00;;;;;-128.00;-1.00;-1.00;106418;1259;1003108;-36
2023/07/29 02:26:59;;;;;;;;;10.00;10.00;;;;;-128.00;-1.00;-1.00;106361;1259;1002895;-36
2023/07/29 02:29:26;;;;;;;;;6.50;6.50;;;;;-128.00;-1.00;-1.00;106413;1259;1002457;-37
2023/07/29 02:31:54;;;;;;;;;5.00;5.00;;;;;-128.00;-1.00;-1.00;106417;1259;1003316;-37
2023/07/29 02:34:21;;;;;;;;;7.50;7.00;;;;;-128.00;-1.00;-1.00;106415;1259;1002724;-37
2023/07/29 02:36:48;;;;;;;;;7.00;7.00;;;;;-128.00;-1.00;-1.00;106426;1259;1002573;-36
2023/07/29 02:39:15;;;;;;;;;6.00;6.00;;;;;-128.00;-1.00;-1.00;106463;1259;1002846;-36
2023/07/29 02:41:43;;;;;;;;;6.00;6.00;;;;;-128.00;-1.00;-1.00;106411;1267;1003157;-36
2023/07/29 02:44:10;;;;;;;;;7.00;6.50;;;;;-128.00;-1.00;-1.00;106464;1259;1003064;-36
2023/07/29 02:46:37;;;;;;;;;7.00;6.50;;;;;-128.00;-1.00;-1.00;106458;1259;1002363;-37
2023/07/29 02:49:05;;;;;;;;;6.67;6.67;;;;;-128.00;-1.00;-1.00;106445;1253;1004292;-37
2023/07/29 02:51:32;;;;;;;;;8.00;7.00;;;;;-128.00;-1.00;-1.00;106478;1259;1003185;-36
2023/07/29 02:53:59;;;;;;;;;7.00;7.00;;;;;-128.00;-1.00;-1.00;106454;1259;1002470;-36
2023/07/29 02:56:27;;;;;;;;;6.67;6.00;;;;;-128.00;-1.00;-1.00;106446;1253;1002478;-37
2023/07/29 02:58:54;;;;;;;;;6.00;6.00;;;;;-128.00;-1.00;-1.00;106476;1259;1002688;-37
2023/07/29 03:01:21;;;;;;;;;6.33;6.33;;;;;-128.00;-1.00;-1.00;106477;1259;1004511;-36
2023/07/29 03:03:49;;;;;;;;;7.00;6.00;;;;;-128.00;-1.00;-1.00;106458;1259;1002480;-36
2023/07/29 03:06:16;;;;;;;;;6.75;6.00;;;;;-128.00;-1.00;-1.00;106452;1259;1002840;-36
2023/07/29 03:08:43;;;;;;;;;7.00;6.50;;;;;-128.00;-1.00;-1.00;106452;1253;1002488;-36
2023/07/29 03:11:11;;;;;;;;;5.00;5.00;;;;;-128.00;-1.00;-1.00;106408;1259;1002523;-36
2023/07/29 03:13:38;;;;;;;;;9.00;7.00;;;;;-128.00;-1.00;-1.00;106332;1259;1002615;-36
2023/07/29 03:16:05;;;;;;;;;9.00;7.00;;;;;-128.00;-1.00;-1.00;106475;1259;1002354;-35
2023/07/29 03:18:32;;;;;;;;;10.50;10.00;;;;;-128.00;-1.00;-1.00;106419;1260;1003004;-37
2023/07/29 03:21:00;;;;;;;;;9.00;9.00;;;;;-128.00;-1.00;-1.00;106438;1253;1002730;-37
2023/07/29 03:23:27;;;;;;;;;10.00;9.00;;;;;-128.00;-1.00;-1.00;106512;1259;1002895;-36
2023/07/29 03:25:56;;;;;;;;;;;;;;;-128.00;-1.00;-1.00;106469;1259;1002840;-37
2023/07/29 03:28:23;;;;;;;;;10.00;10.00;;;;;-128.00;-1.00;-1.00;106493;1259;1008026;-37
2023/07/29 03:30:51;;;;;;;;;8.00;8.00;;;;;-128.00;-1.00;-1.00;106443;1259;1002715;-37
2023/07/29 03:33:18;;;;;;;;;10.00;9.00;;;;;-128.00;-1.00;-1.00;106460;1260;1003067;-35
2023/07/29 03:35:45;;;;;;;;;9.00;7.00;;;;;-128.00;-1.00;-1.00;106428;1259;1002371;-37
2023/07/29 03:38:13;;;;;;;;;9.00;7.00;;;;;-128.00;-1.00;-1.00;106459;1259;1002907;-37
2023/07/29 03:40:40;;;;;;;;;9.00;9.00;;;;;-128.00;-1.00;-1.00;106453;1259;1002511;-37
2023/07/29 03:43:07;;;;;;;;;9.00;9.00;;;;;-128.00;-1.00;-1.00;106437;1259;1004974;-38
2023/07/29 03:45:35;;;;;;;;;10.00;7.00;;;;;-128.00;-1.00;-1.00;106432;1259;1002761;-36
2023/07/29 03:48:02;;;;;;;;;9.00;7.00;;;;;-128.00;-1.00;-1.00;106449;1259;1002665;-37
2023/07/29 03:50:29;;;;;;;;;10.00;10.00;;;;;-128.00;-1.00;-1.00;106452;1259;1005465;-37
2023/07/29 03:52:57;;;;;;;;;8.50;8.50;;;;;-128.00;-1.00;-1.00;106419;1259;1002866;-35
2023/07/29 03:55:24;;;;;;;;;11.00;10.00;;;;;-128.00;-1.00;-1.00;106430;1259;1002533;-37
2023/07/29 03:57:51;;;;;;;;;11.00;10.00;;;;;-128.00;-1.00;-1.00;106347;1260;1002728;-37
2023/07/29 04:00:19;;;;;;;;;10.00;9.00;;;;;-128.00;-1.00;-1.00;106416;1253;1002378;-37
2023/07/29 04:02:46;;;;;;;;;6.33;6.33;;;;;-128.00;-1.00;-1.00;106479;1259;1002924;-36
2023/07/29 04:05:13;;;;;;;;;9.50;9.00;;;;;-128.00;-1.00;-1.00;106467;1259;1001982;-37
2023/07/29 04:07:41;;;;;;;;;9.00;7.00;;;;;-128.00;-1.00;-1.00;106443;1253;1002905;-37
2023/07/29 04:10:08;;;;;;;;;6.50;6.00;;;;;-128.00;-1.00;-1.00;106437;1259;1002420;-37
2023/07/29 04:12:36;;;;;;;;;9.00;8.33;;;;;-128.00;-1.00;-1.00;106395;1252;1003431;-37
2023/07/29 04:15:03;;;;;;;;;7.00;7.00;;;;;-128.00;-1.00;-1.00;106423;1259;1002892;-36
2023/07/29 04:17:31;;;;;;;;;9.00;8.33;;;;;-128.00;-1.00;-1.00;106421;1259;1003431;-36
2023/07/29 04:19:58;;;;;;;;;8.00;7.00;;;;;-128.00;-1.00;-1.00;106434;1259;1003020;-36
2023/07/29 04:22:25;;;;;;;;;7.00;7.00;;;;;-128.00;-1.00;-1.00;106425;1259;1003349;-36
2023/07/29 04:24:53;;;;;;;;;7.00;7.00;;;;;-128.00;-1.00;-1.00;106427;1259;1002186;-37
2023/07/29 04:27:21;;;;;;;;;6.00;6.00;;;;;-128.00;-1.00;-1.00;106436;1259;1002599;-37
2023/07/29 04:29:48;;;;;;;;;7.00;7.00;;;;;-128.00;-1.00;-1.00;106405;1259;1003095;-37
2023/07/29 04:32:15;;;;;;;;;6.00;5.00;;;;;-128.00;-1.00;-1.00;106418;1259;1002792;-36
2023/07/29 04:34:42;;;;;;;;;10.00;9.50;;;;;-128.00;-1.00;-1.00;106449;1259;1003084;-39
2023/07/29 04:37:10;;;;;;;;;9.00;9.00;;;;;-128.00;-1.00;-1.00;106454;1253;1002447;-37
2023/07/29 04:39:37;;;;;;;;;9.33;9.00;;;;;-128.00;-1.00;-1.00;106452;1259;1003667;-36
2023/07/29 04:42:04;;;;;;;;;11.00;10.00;;;;;-128.00;-1.00;-1.00;106368;1267;1002953;-36
2023/07/29 04:44:32;;;;;;;;;18.00;15.00;;;;;-128.00;-1.00;-1.00;106343;1259;1003318;-36
2023/07/29 04:46:59;;;;;;;;;13.00;13.00;;;;;-128.00;-1.00;-1.00;106370;1253;1002574;-36
2023/07/29 04:49:26;;;;;;;;;10.50;10.50;;;;;-128.00;-1.00;-1.00;106318;1259;1002851;-36
2023/07/29 04:51:54;;;;;;;;;14.00;11.00;;;;;-128.00;-1.00;-1.00;106338;1259;1002819;-36
2023/07/29 04:54:21;;;;;;;;;19.00;17.50;;;;;-128.00;-1.00;-1.00;106401;1259;1002836;-37
2023/07/29 04:56:48;;;;;;;;;15.00;14.00;;;;;-128.00;-1.00;-1.00;106460;1253;1002828;-37
2023/07/29 04:59:16;;;;;;;;;15.00;15.00;;;;;-128.00;-1.00;-1.00;106451;1252;1002522;-37
2023/07/29 05:01:44;;;;;;;;;18.00;17.75;;;;;-128.00;-1.00;-1.00;106441;1253;1002868;-37
2023/07/29 05:04:11;;;;;;;;;18.00;18.00;;;;;-128.00;-1.00;-1.00;106390;1253;1002590;-36
2023/07/29 05:06:38;;;;;;;;;23.00;20.00;;;;;-128.00;-1.00;-1.00;106388;1259;1002602;-36
2023/07/29 05:09:06;;;;;;;;;16.50;16.50;;;;;-128.00;-1.00;-1.00;106453;1253;1002440;-36
2023/07/29 05:11:33;;;;;;;;;16.00;14.00;;;;;-128.00;-1.00;-1.00;106360;1253;1002339;-35
2023/07/29 05:14:03;;;;;;;;;17.00;16.33;;;;;-128.00;-1.00;-1.00;106391;1259;1002750;-37
2023/07/29 05:16:30;;;;;;;;;19.00;17.00;;;;;-128.00;-1.00;-1.00;106382;1259;1006847;-36
2023/07/29 05:18:57;;;;;;;;;18.00;17.00;;;;;-128.00;-1.00;-1.00;106371;1253;1002488;-36
2023/07/29 05:21:25;;;;;;;;;16.00;16.00;;;;;-128.00;-1.00;-1.00;106386;1259;1002552;-36
2023/07/29 05:23:52;;;;;;;;;18.00;14.00;;;;;-128.00;-1.00;-1.00;106372;1260;1003265;-37
2023/07/29 05:26:20;;;;;;;;;20.67;16.67;;;;;-128.00;-1.00;-1.00;106400;1259;1002718;-36
2023/07/29 05:28:47;;;;;;;;;16.00;16.00;;;;;-128.00;-1.00;-1.00;106452;1259;1002669;-36
2023/07/29 05:31:14;;;;;;;;;13.00;12.00;;;;;-128.00;-1.00;-1.00;106403;1259;1002189;-36
2023/07/29 05:33:42;;;;;;;;;16.00;14.00;;;;;-128.00;-1.00;-1.00;106412;1260;1003012;-37
2023/07/29 05:36:09;;;;;;;;;14.00;14.00;;;;;-128.00;-1.00;-1.00;106446;1259;1002709;-37
2023/07/29 05:38:36;;;;;;;;;18.00;17.00;;;;;-128.00;-1.00;-1.00;106440;1259;1003245;-37
2023/07/29 05:41:03;;;;;;;;;20.50;16.50;;;;;-128.00;-1.00;-1.00;106432;1260;1002668;-37
2023/07/29 05:43:31;;;;;;;;;13.00;12.00;;;;;-128.00;-1.00;-1.00;106432;1253;1002746;-37
2023/07/29 05:45:58;;;;;;;;;14.00;13.00;;;;;-128.00;-1.00;-1.00;106466;1253;1002675;-37
2023/07/29 05:48:25;;;;;;;;;16.50;15.00;;;;;-128.00;-1.00;-1.00;106336;1259;1002890;-37
2023/07/29 05:50:53;;;;;;;;;17.00;17.00;;;;;-128.00;-1.00;-1.00;106465;1253;1002824;-37
2023/07/29 05:53:20;;;;;;;;;14.00;14.00;;;;;-128.00;-1.00;-1.00;106441;1259;1002430;-35
2023/07/29 05:55:47;;;;;;;;;14.00;14.00;;;;;-128.00;-1.00;-1.00;106427;1259;1002554;-36
2023/07/29 05:58:15;;;;;;;;;18.00;17.00;;;;;-128.00;-1.00;-1.00;106408;1259;1004628;-36
2023/07/29 06:00:42;;;;;;;;;17.00;15.00;;;;;-128.00;-1.00;-1.00;106448;1259;1003023;-36
2023/07/29 06:03:09;;;;;;;;;18.00;17.00;;;;;-128.00;-1.00;-1.00;106448;1259;1002614;-37
2023/07/29 06:05:37;;;;;;;;;16.50;16.00;;;;;-128.00;-1.00;-1.00;106440;1268;1002561;-37
2023/07/29 06:08:05;;;;;;;;;18.50;15.00;;;;;-128.00;-1.00;-1.00;106424;1261;1002733;-37
2023/07/29 06:10:32;;;;;;;;;17.00;17.00;;;;;-128.00;-1.00;-1.00;106458;1253;1003742;-37
2023/07/29 06:12:59;;;;;;;;;16.33;16.00;;;;;-128.00;-1.00;-1.00;106453;1259;1002162;-37
2023/07/29 06:15:26;;;;;;;;;17.00;15.00;;;;;-128.00;-1.00;-1.00;106444;1259;1003019;-37
2023/07/29 06:17:54;;;;;;;;;17.50;17.00;;;;;-128.00;-1.00;-1.00;106438;1253;1002573;-37
2023/07/29 06:20:21;;;;;;;;;18.00;17.00;;;;;-128.00;-1.00;-1.00;106450;1259;1003817;-37
2023/07/29 06:22:48;;;;;;;;;18.00;17.00;;;;;-128.00;-1.00;-1.00;106467;1259;1004406;-37
2023/07/29 06:25:16;;;;;;;;;14.00;13.50;;;;;-128.00;-1.00;-1.00;106458;1259;1005410;-37
2023/07/29 06:27:43;;;;;;;;;18.00;17.00;;;;;-128.00;-1.00;-1.00;106489;1259;1003752;-36
2023/07/29 06:30:10;;;;;;;;;11.50;11.50;;;;;-128.00;-1.00;-1.00;106490;1259;1002511;-35
2023/07/29 06:32:38;;;;;;;;;13.00;13.00;;;;;-128.00;-1.00;-1.00;106465;1259;1003094;-36
2023/07/29 06:35:05;;;;;;;;;16.00;13.00;;;;;-128.00;-1.00;-1.00;106454;1259;1002966;-36
2023/07/29 06:37:33;;;;;;;;;14.00;14.00;;;;;-128.00;-1.00;-1.00;106483;1268;1002642;-36
2023/07/29 06:40:00;;;;;;;;;14.00;14.00;;;;;-128.00;-1.00;-1.00;106447;1259;1003142;-36
2023/07/29 06:42:28;;;;;;;;;17.00;16.00;;;;;-128.00;-1.00;-1.00;106452;1259;1005253;-36
2023/07/29 06:44:55;;;;;;;;;17.00;15.00;;;;;-128.00;-1.00;-1.00;106480;1259;1003681;-36
2023/07/29 06:47:22;;;;;;;;;15.00;15.00;;;;;-128.00;-1.00;-1.00;106448;1259;1004693;-35
2023/07/29 06:51:10;;;;;;;;;16.00;15.00;;;;;23.38;54.47;100283.07;107089;1301;17683;-36
2023/07/29 06:53:37;;;;;;;;;19.00;17.00;;;;;23.19;54.00;100284.35;108679;1263;19778;-36
2023/07/29 06:56:04;;;;;;;;;;;;;;;22.90;54.26;100286.71;110023;1254;20062;-37
2023/07/29 06:58:32;;;;;;;;;16.00;15.00;;;;;22.99;54.25;100287.51;110043;1267;17363;-36
2023/07/29 07:00:59;;;;;;;;;;;;;;;23.27;53.92;100285.15;110056;1267;18358;-36
2023/07/29 07:03:26;;;;;;;;;;;;;;;23.35;54.08;100286.23;110086;1267;18623;-36
2023/07/29 07:05:54;;;;;;;;;16.00;15.00;;;;;23.31;54.30;100283.58;110088;1265;145441;-36
2023/07/29 07:08:21;;;;;;;;;16.33;14.33;;;;;23.56;53.76;100278.91;110199;1265;18367;-36
2023/07/29 07:10:48;;;;;;;;;15.00;15.00;;;;;23.49;53.68;100280.98;110185;1251;20023;-36
2023/07/29 07:13:16;;;;;;;;;17.00;16.00;;;;;23.49;53.67;100276.61;110270;1257;21651;-35
2023/07/29 07:15:43;;;;;;;;;15.00;14.33;;;;;23.64;53.29;100273.57;110216;1253;19888;-36
2023/07/29 07:18:10;;;;;;;;;;;;;;;23.72;53.07;100272.48;110293;1262;19091;-36
2023/07/29 07:20:37;;;;;;;;;;;;;;;23.71;53.34;100271.09;110280;1247;20181;-35
2023/07/29 07:23:08;;;;;;;;;69.00;48.33;;;;;23.80;53.06;100266.60;110262;1250;19821;-36
2023/07/29 07:25:36;;;;;;;;;65.00;50.00;;;;;23.88;53.31;100265.13;110210;1250;19283;-37
2023/07/29 07:28:03;;;;;;;;;57.50;45.00;;;;;23.98;53.11;100270.47;110223;1262;18367;-37
2023/07/29 07:30:30;;;;;;;;;77.00;54.50;;;;;24.04;53.09;100269.16;110220;1262;18399;-36
2023/07/29 07:32:58;;;;;;;;;60.33;49.00;;;;;24.08;52.59;100273.61;110203;1247;22080;-36
2023/07/29 07:35:25;;;;;;;;;70.50;54.50;;;;;24.14;52.20;100267.64;110229;1263;18145;-35
2023/07/29 07:37:52;;;;;;;;;47.00;41.00;;;;;24.21;52.32;100265.30;110236;1262;18383;-36
2023/07/29 07:40:20;;;;;;;;;67.50;51.00;;;;;24.18;52.52;100266.45;110275;1262;18537;-35
2023/07/29 07:42:47;;;;;;;;;74.00;56.00;;;;;24.14;52.23;100267.02;110321;1262;18763;-36
2023/07/29 07:45:14;;;;;;;;;58.00;44.50;;;;;24.12;51.82;100263.59;110255;1251;19826;-37
2023/07/29 07:47:42;;;;;;;;;42.00;32.00;;;;;24.16;51.28;100262.40;110295;1250;20095;-36
2023/07/29 07:50:09;;;;;;;;;19.00;19.00;;;;;24.14;51.18;100261.68;110237;1264;18150;-35
2023/07/29 07:52:36;;;;;;;;;16.00;15.00;;;;;24.09;51.13;100257.30;110209;1259;19394;-36
2023/07/29 07:55:03;;;;;;;;;18.50;15.50;;;;;24.17;51.06;100256.52;110214;1250;20020;-36
2023/07/29 07:57:31;;;;;;;;;12.00;11.00;;;;;24.28;50.55;100250.52;110297;1250;19590;-36
2023/07/29 07:59:58;;;;;;;;;11.00;11.00;;;;;24.34;50.33;100255.94;110309;1248;18447;-36
2023/07/29 08:02:25;;;;;;;;;11.50;11.00;;;;;24.21;49.53;100249.88;110259;1248;19981;-36
2023/07/29 08:04:53;;;;;;;;;10.00;9.00;;;;;24.28;49.12;100242.96;110186;1250;19720;-36
2023/07/29 08:07:20;;;;;;;;;9.00;9.00;;;;;24.29;49.29;100246.99;110218;1263;18435;-37
2023/07/29 08:09:47;;;;;;;;;7.00;7.00;;;;;24.32;49.08;100246.17;110204;1248;21785;-37
2023/07/29 08:12:15;;;;;;;;;10.00;9.50;;;;;24.40;48.85;100247.10;110239;1250;19244;-36
2023/07/29 08:14:42;;;;;;;;;8.00;7.00;;;;;24.35;49.13;100245.23;110227;1264;18404;-36
2023/07/29 08:17:09;;;;;;;;;7.50;7.00;;;;;24.37;48.92;100251.59;110233;1250;20072;-36
2023/07/29 08:19:37;;;;;;;;;8.00;8.00;;;;;24.41;48.54;100250.19;110243;1250;19408;-36
2023/07/29 08:22:04;;;;;;;;;9.00;9.00;;;;;24.42;48.28;100242.73;110200;1264;18925;-36
2023/07/29 08:24:31;;;;;;;;;9.00;8.00;;;;;24.46;48.19;100240.05;110227;1264;20666;-36
2023/07/29 08:26:59;;;;;;;;;7.00;7.00;;;;;24.39;48.01;100242.20;110277;1250;19231;-36
2023/07/29 08:29:26;;;;;;;;;8.50;7.50;;;;;24.43;47.80;100238.05;110301;1263;19014;-35
2023/07/29 08:31:55;;;;;;;;;10.00;9.00;;;;;24.70;47.91;100241.17;110280;1250;19670;-36
2023/07/29 08:34:22;;;;;;;;;7.33;7.33;;;;;24.78;47.99;100239.77;110278;1264;22234;-36
2023/07/29 08:36:49;;;;;;;;;7.00;7.00;;;;;24.82;48.27;100236.77;110279;1264;19975;-36
2023/07/29 08:39:17;;;;;;;;;9.00;8.00;;;;;25.00;48.03;100235.00;110181;1248;21643;-36
2023/07/29 08:41:45;;;;;;;;;10.00;8.00;;;;;25.06;48.06;100233.40;110219;1250;19230;-36
2023/07/29 08:44:12;;;;;;;;;7.00;7.00;;;;;24.92;47.46;100231.19;110222;1250;21562;-36
2023/07/29 08:46:39;;;;;;;;;8.00;7.50;;;;;24.55;47.82;100222.71;110225;1247;18614;-37
2023/07/29 08:49:06;;;;;;;;;10.50;8.00;;;;;24.63;47.28;100225.23;110226;1262;21904;-36
2023/07/29 08:51:34;;;;;;;;;6.50;6.50;;;;;24.76;47.15;100221.73;110191;1263;18557;-36
2023/07/29 08:54:01;;;;;;;;;6.50;6.00;;;;;24.95;47.05;100218.34;110193;1263;19143;-36
2023/07/29 08:56:30;;;;;;;;;8.00;7.00;;;;;25.11;47.29;100215.90;110256;1260;19233;-36
2023/07/29 08:58:57;;;;;;;;;12.00;11.00;;;;;25.13;47.12;100213.59;110291;1262;18386;-36
2023/07/29 09:01:24;;;;;;;;;8.00;8.00;;;;;24.89;47.19;100212.41;110275;1263;18182;-36
2023/07/29 09:03:52;;;;;;;;;7.00;7.00;;;;;25.02;46.91;100210.59;110252;1247;20719;-36
2023/07/29 09:06:20;;;;;;;;;10.33;10.00;;;;;24.91;46.62;100210.00;110201;1250;19806;-35
2023/07/29 09:08:47;;;;;;;;;10.50;10.00;;;;;24.79;46.14;100210.16;110181;1263;19560;-35
2023/07/29 09:11:16;;;;;;;;;11.00;10.00;;;;;24.83;45.89;100211.45;110237;1263;21852;-35
2023/07/29 09:13:44;;;;;;;;;12.00;11.00;;;;;24.91;46.11;100207.05;110252;1262;19739;-36
2023/07/29 09:16:12;;;;;;;;;10.50;10.00;;;;;24.90;45.87;100206.18;110244;1263;19527;-36
2023/07/29 09:18:40;;;;;;;;;9.00;9.00;;;;;24.97;46.15;100208.98;110190;1263;18105;-35
2023/07/29 09:21:14;;;;;;;;;13.00;10.33;;;;;25.03;45.94;100204.25;110221;1263;21011;-35
2023/07/29 09:23:42;;;;;;;;;7.00;7.00;;;;;24.99;46.15;100201.49;110299;1262;18197;-36
2023/07/29 09:26:09;;;;;;;;;6.00;6.00;;;;;25.04;45.97;100197.86;110268;1263;19222;-36
2023/07/29 09:28:37;;;;;;;;;6.00;6.00;;;;;25.07;45.81;100198.34;110220;1263;20320;-37
2023/07/29 09:31:05;;;;;;;;;7.00;7.00;;;;;25.10;45.88;100196.45;110175;1263;18293;-36
2023/07/29 09:33:34;;;;;;;;;8.00;8.00;;;;;25.24;45.77;100192.25;110242;1248;17776;-36
2023/07/29 09:36:04;;;;;;;;;8.00;7.33;;;;;25.28;45.43;100192.21;110152;1264;18439;-35
2023/07/29 09:38:31;;;;;;;;;6.50;6.50;;;;;25.17;45.50;100193.09;110199;1263;19537;-36
2023/07/29 09:41:04;;;;;;;;;7.00;6.50;;;;;25.14;45.45;100190.00;110304;1264;18543;-35
2023/07/29 09:43:31;;;;;;;;;7.00;7.00;;;;;25.19;45.15;100188.83;110196;1264;21715;-35
2023/07/29 09:45:59;;;;;;;;;7.00;7.00;;;;;25.28;45.24;100191.95;110201;1264;19515;-36
2023/07/29 09:48:28;;;;;;;;;8.00;7.00;;;;;25.29;44.82;100186.99;110306;1264;19487;-36
2023/07/29 09:50:56;;;;;;;;;7.00;6.00;;;;;25.15;44.66;100185.98;110207;1264;19447;-35
2023/07/29 09:53:25;;;;;;;;;5.00;5.00;;;;;24.99;44.48;100189.94;110255;1264;19593;-35
2023/07/29 09:55:53;;;;;;;;;5.00;5.00;;;;;25.01;44.34;100185.44;110261;1264;19125;-36
2023/07/29 09:58:21;;;;;;;;;8.00;7.33;;;;;25.16;44.07;100182.89;110323;1264;18402;-35
2023/07/29 10:00:48;;;;;;;;;5.50;5.50;;;;;25.16;44.26;100180.41;110266;1248;19115;-36
2023/07/29 10:03:16;;;;;;;;;8.00;8.00;;;;;25.22;44.69;100177.58;110179;1263;19121;-35
2023/07/29 10:05:43;;;;;;;;;7.00;7.00;;;;;25.21;45.10;100177.69;110168;1256;18641;-36
2023/07/29 10:08:11;;;;;;;;;6.00;6.00;;;;;25.15;45.28;100180.92;110158;1250;21717;-36
2023/07/29 10:10:38;;;;;;;;;6.00;6.00;;;;;25.21;45.24;100178.76;110250;1263;20755;-36
2023/07/29 10:13:05;;;;;;;;;7.00;6.00;;;;;25.28;45.41;100184.66;110292;1257;21622;-35
2023/07/29 10:15:32;;;;;;;;;6.50;6.50;;;;;25.21;45.20;100183.14;110196;1264;18222;-36
2023/07/29 10:18:00;;;;;;;;;8.00;7.00;;;;;25.14;45.12;100182.91;110219;1264;17765;-36
2023/07/29 10:20:27;;;;;;;;;6.00;6.00;;;;;25.19;44.61;100177.87;110247;1250;19822;-36
2023/07/29 10:22:54;;;;;;;;;6.00;6.00;;;;;25.07;44.19;100179.09;110222;1256;21724;-36
2023/07/29 10:25:22;;;;;;;;;6.00;6.00;;;;;24.88;44.34;100173.13;110201;1250;19228;-36
2023/07/29 10:27:49;;;;;;;;;6.00;6.00;;;;;24.99;44.47;100173.71;110250;1264;21779;-36
2023/07/29 10:30:16;;;;;;;;;6.00;6.00;;;;;25.08;44.72;100172.78;110217;1248;19636;-36
2023/07/29 10:32:44;;;;;;;;;6.00;6.00;;;;;25.09;44.76;100168.79;110214;1250;19281;-36
2023/07/29 10:35:12;;;;;;;;;6.00;6.00;;;;;25.13;44.57;100166.45;110210;1250;21201;-36
2023/07/29 10:37:39;;;;;;;;;6.00;6.00;;;;;25.16;44.76;100167.48;110243;1264;18202;-36
2023/07/29 10:40:06;;;;;;;;;6.00;6.00;;;;;25.04;44.59;100171.40;110238;1264;19346;-35
2023/07/29 10:42:34;;;;;;;;;6.00;6.00;;;;;24.93;44.79;100168.36;110273;1250;21924;-36
2023/07/29 10:45:01;;;;;;;;;6.50;6.50;;;;;25.01;44.92;100162.77;110267;1248;18232;-35
2023/07/29 10:47:29;;;;;;;;;6.00;6.00;;;;;25.05;45.22;100159.80;110292;1248;20504;-36
2023/07/29 10:49:56;;;;;;;;;6.00;6.00;;;;;25.30;45.15;100154.61;110228;1250;19871;-36
2023/07/29 10:52:23;;;;;;;;;6.00;6.00;;;;;25.18;45.22;100156.45;110275;1250;19585;-36
2023/07/29 10:54:51;;;;;;;;;7.00;6.00;;;;;25.18;45.57;100151.52;110241;1250;19234;-36
2023/07/29 10:57:18;;;;;;;;;11.00;9.00;;;;;25.14;45.72;100142.90;110200;1264;19347;-36
2023/07/29 10:59:45;;;;;;;;;7.00;7.00;;;;;25.22;45.61;100146.48;110211;1250;19645;-36
2023/07/29 11:02:13;;;;;;;;;9.00;7.33;;;;;25.28;45.68;100146.45;110186;1248;19992;-36
2023/07/29 11:04:40;;;;;;;;;6.00;6.00;;;;;25.28;45.50;100146.86;110280;1250;19967;-35
2023/07/29 11:07:07;;;;;;;;;7.50;7.00;;;;;25.27;45.23;100142.64;110247;1264;18214;-35
2023/07/29 11:09:34;;;;;;;;;8.00;7.00;;;;;25.24;45.09;100140.52;110235;1248;22064;-35
2023/07/29 11:12:02;;;;;;;;;6.00;6.00;;;;;25.30;44.95;100140.29;110214;1257;19962;-35
2023/07/29 11:14:29;;;;;;;;;7.00;7.00;;;;;25.25;44.83;100141.05;110223;1249;19654;-36